Portada
METAR-TAF:

METAR-TAF

Aeropuertos :

Aeropuerto Internacional de Yap

Yap, Micronesia

latitud: 09-29N, longitud: 138-05E, altitud: 28 m

Observación

El informe se hizo hace 15 minutos, a las 14:53 UTC
Viento 9 kt del este
Temperatura 28°C
Humedad 84%
Presión 1010 hPa
Visibilidad: 19.3 km
Escasas nubes a una altura de 1600 ft
Cielo nuboso a una altura de 30000 ft

METAR: PTYA 211453Z 08009KT 12SM FEW016 BKN300 28/25 A2983 RMK SLP101 8/101 T02800253 403180260 57014

Hora: 01:08 (15:08 UTC)

Pronóstico

El informe se hizo hace 3 horas y 48 minutos, a las 11:20 UTC
Pronóstico válido del 21 a las 12 UTC al 22 a las 12 UTC
Viento 10 kt del este
Visibilidad: 10 km
Escasas nubes a una altura de 1600 ft
Nubes dispersas a una altura de 3000 ft
chaparrones en las proximidades,

TAF: PTYA 211120Z 2112/2212 08010KT P6SM VCSH FEW016 SCT030

Observaciones y pronósticos meteorológicos de más de 4000 aeropuertos (mensajes METAR y TAF).

Los puntos amarillos y rojos representan las estaciones disponibles.

Ponga el ratón en el punto deseado para ver el nombre de la estación.

Haga clic para ver las observaciones y los pronósticos meteorológicos.

Para cambiar el mapa : haga clic en los botones verdes con una cruz de color negro para hacer un zoom, en el botón verde con un guión para alejar o en las flechas verdes para mapas adyacentes.


METAR-TAF: